Data for 02/28/2006

Time Sea-Level Adjusted Pressure Absolute Pressure Temperature Relative Humidity Dew Point   
(mb) (inHg) (mb) (inHg) (C) (F) (%) (C) (F)
00:05 1009 29.8 838 24.75 7.8 46.1 58 0.2 32.4
00:10 1009 29.8 838 24.75 7.7 45.9 59 0.3 32.6
00:15 1009 29.8 838 24.75 7.7 45.9 59 0.3 32.6
00:20 1009 29.8 838 24.75 7.7 45.9 60 0.5 32.8
00:25 1009 29.8 838 24.75 7.7 45.9 61 0.6 33.1
00:30 1009 29.8 838 24.75 7.6 45.6 60 0.4 32.7
00:35 1009 29.8 838 24.75 7.4 45.3 60 0.1 32.1
00:40 1009 29.8 838 24.75 7.7 45.9 59 0.1 32.2
00:45 1009 29.8 838 24.75 7.8 46 58 0.2 32.3
00:50 1009 29.8 838 24.75 8 46.4 57 -0 32
00:55 1009 29.8 838 24.75 7.5 45.4 61 0.5 32.8
01:00 1009 29.8 838 24.75 6.6 43.9 64 0.2 32.4
01:05 1008 29.77 838 24.75 6.4 43.5 64 0.1 32.1
01:10 1008 29.77 838 24.75 6.5 43.7 63 0 32.1
01:15 1008 29.77 838 24.75 6.6 43.9 61 -0.3 31.5
01:20 1008 29.77 837 24.72 7.1 44.8 61 0.2 32.3
01:25 1008 29.77 837 24.72 6.9 44.5 61 -0 31.9
01:30 1008 29.77 837 24.72 7.1 44.8 60 -0.2 31.7
01:35 1008 29.77 837 24.72 7.1 44.8 60 -0.1 31.9
01:40 1008 29.77 837 24.72 6.8 44.3 62 0 32
01:45 1008 29.77 837 24.72 6.6 43.9 62 -0.1 31.9
01:50 1008 29.77 837 24.72 6.7 44.1 61 -0.3 31.5
01:55 1008 29.77 837 24.72 6.8 44.2 60 -0.5 31.2
02:00 1008 29.77 837 24.72 7.1 44.8 58 -0.6 30.9
02:05 1008 29.77 837 24.72 7.1 44.8 59 -0.4 31.3
02:10 1008 29.77 837 24.72 7 44.6 58 -0.8 30.6
02:15 1008 29.77 837 24.72 7.2 44.9 56 -0.9 30.4
02:20 1008 29.77 837 24.72 7.5 45.5 56 -0.7 30.8
02:25 1008 29.77 837 24.72 7.6 45.6 54 -1 30.1
02:30 1007 29.74 837 24.72 7.9 46.1 55 -0.7 30.7
02:35 1007 29.74 837 24.72 7.9 46.2 53 -1 30.1
02:40 1007 29.74 837 24.72 7.8 46.1 54 -0.8 30.6
02:45 1007 29.74 837 24.72 7.7 45.9 54 -1 30.1
02:50 1007 29.74 837 24.72 8 46.3 53 -1 30.1
02:55 1008 29.77 837 24.72 7.6 45.7 55 -0.7 30.7
03:00 1008 29.77 837 24.72 7.6 45.7 53 -1.3 29.6
03:05 1008 29.77 837 24.72 7.7 45.9 55 -0.8 30.6
03:10 1007 29.74 837 24.72 7.5 45.5 55 -1.1 30.1
03:15 1007 29.74 836 24.69 7.6 45.6 55 -1 30.3
03:20 1007 29.74 836 24.69 7.8 46 53 -1.2 29.9
03:25 1007 29.74 836 24.69 8 46.4 53 -1 30.3
03:30 1007 29.74 836 24.69 8.1 46.6 53 -0.9 30.4
03:35 1007 29.74 836 24.69 8.2 46.7 52 -1 30.2
03:40 1006 29.71 836 24.69 8.5 47.3 52 -0.9 30.5
03:45 1006 29.71 835 24.66 8.8 47.8 50 -1.1 30.1
03:50 1006 29.71 835 24.66 8.4 47.1 53 -0.6 30.9
03:55 1006 29.71 835 24.66 8 46.3 55 -0.4 31.2
04:00 1006 29.71 835 24.66 7.4 45.3 56 -0.8 30.5
04:05 1006 29.71 835 24.66 7.4 45.4 55 -0.9 30.3
04:10 1006 29.71 835 24.66 7.4 45.3 55 -1.1 30
04:15 1006 29.71 835 24.66 7.9 46.2 52 -1.3 29.6
04:20 1006 29.71 835 24.66 8.4 47.2 51 -1.1 30
04:25 1006 29.71 835 24.66 8.6 47.4 50 -1.1 30
04:30 1006 29.71 835 24.66 8.4 47.2 51 -1 30.2
04:35 1006 29.71 835 24.66 8.2 46.8 53 -0.8 30.5
04:40 1006 29.71 835 24.66 8.9 48 47 -1.9 28.5
04:45 1006 29.71 835 24.66 9.9 49.8 47 -0.8 30.5
04:50 1006 29.71 835 24.66 9.7 49.5 48 -0.7 30.7
04:55 1006 29.71 835 24.66 9.9 49.8 45 -1.4 29.5
05:00 1005 29.68 835 24.66 10.3 50.5 47 -0.5 31.2
05:05 1005 29.68 834 24.63 10.3 50.6 44 -1.4 29.4
05:10 1005 29.68 834 24.63 9.9 49.8 47 -0.8 30.5
05:15 1005 29.68 834 24.63 9.8 49.7 48 -0.6 30.9
05:20 1005 29.68 834 24.63 8.9 47.9 52 -0.5 31.1
05:25 1005 29.68 834 24.63 7.9 46.2 55 -0.5 31.1
05:30 1005 29.68 834 24.63 7.5 45.5 56 -0.6 31
05:35 1005 29.68 834 24.63 7.2 45 57 -0.7 30.8
05:40 1005 29.68 834 24.63 7.3 45.2 56 -0.8 30.6
05:45 1005 29.68 834 24.63 7.4 45.4 56 -0.7 30.7
05:50 1005 29.68 834 24.63 7.4 45.4 57 -0.6 31
05:55 1005 29.68 834 24.63 7.2 45 58 -0.5 31.1
06:00 1005 29.68 834 24.63 7 44.7 59 -0.5 31.1
06:05 1005 29.68 834 24.63 7.1 44.7 58 -0.6 30.9
06:10 1005 29.68 834 24.63 7.3 45.1 58 -0.5 31
06:15 1005 29.68 834 24.63 7.4 45.3 57 -0.6 30.9
06:20 1005 29.68 834 24.63 7.9 46.1 55 -0.6 30.9
06:25 1005 29.68 834 24.63 7.9 46.2 55 -0.5 31.1
06:30 1005 29.68 834 24.63 7.8 46 56 -0.4 31.3
06:35 1005 29.68 834 24.63 7.7 45.8 56 -0.5 31.2
06:40 1005 29.68 834 24.63 7.7 45.8 55 -0.7 30.7
06:45 1005 29.68 834 24.63 8 46.5 55 -0.5 31.1
06:50 1004 29.65 834 24.63 7.9 46.3 55 -0.5 31.1
06:55 1004 29.65 833 24.6 7.7 45.9 57 -0.2 31.6
07:00 1004 29.65 834 24.63 7.2 45 58 -0.5 31.1
07:05 1004 29.65 833 24.6 7.2 44.9 59 -0.4 31.3
07:10 1004 29.65 833 24.6 7 44.6 59 -0.5 31.1
07:15 1004 29.65 833 24.6 6.9 44.4 60 -0.4 31.3
07:20 1004 29.65 833 24.6 6.8 44.3 60 -0.5 31.2
07:25 1004 29.65 833 24.6 6.6 44 61 -0.3 31.4
07:30 1004 29.65 833 24.6 6.6 43.8 61 -0.3 31.4
07:35 1004 29.65 833 24.6 6.6 43.9 60 -0.5 31.2
07:40 1004 29.65 833 24.6 7.1 44.8 59 -0.5 31.2
07:45 1004 29.65 833 24.6 7.2 44.9 59 -0.3 31.4
07:50 1004 29.65 833 24.6 7.3 45.2 58 -0.3 31.4
07:55 1004 29.65 833 24.6 7.4 45.3 57 -0.5 31.2
08:00 1004 29.65 833 24.6 8.1 46.7 54 -0.7 30.8
08:05 1004 29.65 833 24.6 8.5 47.4 53 -0.4 31.2
08:10 1004 29.65 833 24.6 8.7 47.6 53 -0.4 31.2
08:15 1004 29.65 833 24.6 8.6 47.5 54 -0.1 31.9
08:20 1004 29.65 833 24.6 8.2 46.8 56 0 32.1
08:25 1004 29.65 833 24.6 8.1 46.6 56 -0.2 31.7
08:30 1004 29.65 833 24.6 8.3 47 55 -0.2 31.6
08:35 1004 29.65 833 24.6 8.4 47.1 55 -0.1 31.8
08:40 1004 29.65 833 24.6 8.5 47.4 55 0 32
08:45 1004 29.65 833 24.6 8.6 47.4 55 0 32
08:50 1004 29.65 833 24.6 8.3 46.9 57 0.2 32.4
08:55 1004 29.65 833 24.6 8.2 46.7 57 0.1 32.1
09:00 1004 29.65 833 24.6 8.7 47.7 53 -0.3 31.5
09:05 1004 29.65 833 24.6 9 48.3 54 0.2 32.4
09:10 1004 29.65 833 24.6 9.1 48.3 53 0 32
09:15 1004 29.65 833 24.6 9.4 49 52 0 32
09:20 1004 29.65 833 24.6 9.8 49.7 51 0.3 32.5
09:25 1004 29.65 833 24.6 9.8 49.7 51 0.3 32.5
09:30 1003 29.62 833 24.6 9.4 49 53 0.3 32.6
09:35 1004 29.65 833 24.6 9.4 48.9 52 0.1 32.2
09:40 1004 29.65 833 24.6 9.6 49.2 51 0.1 32.2
09:45 1004 29.65 833 24.6 9.7 49.5 51 0.2 32.3
09:50 1004 29.65 833 24.6 10.2 50.3 48 -0.3 31.4
09:55 1004 29.65 833 24.6 10.7 51.3 46 -0.4 31.4
10:00 1004 29.65 833 24.6 10.9 51.5 46 -0.2 31.6
10:05 1003 29.62 833 24.6 10.9 51.6 46 -0.1 31.7
10:10 1003 29.62 833 24.6 10.9 51.5 46 -0.3 31.4
10:15 1003 29.62 833 24.6 10.9 51.6 46 -0.2 31.7
10:20 1003 29.62 833 24.6 10.6 51.1 48 -0 31.9
10:25 1003 29.62 833 24.6 10.7 51.2 47 -0.1 31.7
10:30 1003 29.62 833 24.6 10.6 51 48 0.1 32.1
10:35 1003 29.62 832 24.57 10.5 51 45 -1 30.3
10:40 1003 29.62 832 24.57 11.1 52 46 0.1 32.2
10:45 1003 29.62 832 24.57 10.8 51.4 47 -0.1 31.9
10:50 1003 29.62 832 24.57 10.7 51.3 47 -0.2 31.7
10:55 1003 29.62 832 24.57 10.7 51.3 47 0 32.1
11:00 1003 29.62 832 24.57 10.7 51.3 48 0.2 32.4
11:05 1003 29.62 832 24.57 10.7 51.3 47 0 32
11:10 1003 29.62 832 24.57 10.8 51.5 47 0.1 32.2
11:15 1003 29.62 832 24.57 10.7 51.2 48 0.1 32.1
11:20 1003 29.62 832 24.57 10.8 51.5 48 0.2 32.4
11:25 1003 29.62 832 24.57 10.7 51.3 48 0.1 32.2
11:30 1003 29.62 832 24.57 10.7 51.3 47 -0.2 31.7
11:35 1003 29.62 832 24.57 10.9 51.6 45 -0.4 31.2
11:40 1003 29.62 832 24.57 11.1 52 46 -0.2 31.7
11:45 1003 29.62 832 24.57 11 51.7 47 0 32.1
11:50 1003 29.62 832 24.57 11 51.7 46 -0.2 31.6
11:55 1003 29.62 832 24.57 10.9 51.6 48 0.3 32.5
12:00 1003 29.62 833 24.6 10.7 51.3 48 0.3 32.5
12:05 1003 29.62 833 24.6 10.5 51 51 0.9 33.6
12:10 1003 29.62 833 24.6 10.2 50.4 54 1.4 34.6
12:15 1004 29.65 833 24.6 9.9 49.9 56 1.6 34.8
12:20 1004 29.65 833 24.6 10 50 54 1.3 34.3
12:25 1003 29.62 833 24.6 10 50 54 1.3 34.3
12:30 1003 29.62 833 24.6 10.1 50.1 56 1.7 35.1
12:35 1003 29.62 832 24.57 10.1 50.2 56 1.7 35
12:40 1003 29.62 832 24.57 10.2 50.3 54 1.2 34.1
12:45 1003 29.62 832 24.57 10.4 50.6 54 1.5 34.7
12:50 1003 29.62 832 24.57 10.5 51 53 1.3 34.3
12:55 1003 29.62 832 24.57 10.7 51.3 52 1.4 34.6
13:00 1003 29.62 832 24.57 10.9 51.6 52 1.4 34.4
13:05 1003 29.62 832 24.57 11.1 51.9 51 1.3 34.3
13:10 1003 29.62 832 24.57 11.3 52.3 50 1.2 34.1
13:15 1003 29.62 832 24.57 11.4 52.4 50 1.5 34.6
13:20 1003 29.62 832 24.57 11.6 52.9 49 1.3 34.4
13:25 1003 29.62 832 24.57 11.5 52.7 51 1.7 35
13:30 1003 29.62 832 24.57 11.3 52.3 51 1.5 34.7
13:35 1003 29.62 832 24.57 11.2 52.1 52 1.8 35.3
13:40 1003 29.62 832 24.57 10.9 51.6 52 1.5 34.7
13:45 1003 29.62 832 24.57 10.7 51.3 52 1.2 34.2
13:50 1003 29.62 832 24.57 10.8 51.5 51 1.2 34.2
13:55 1003 29.62 832 24.57 10.4 50.7 52 1 33.8
14:00 1003 29.62 832 24.57 10.2 50.3 52 0.7 33.3
14:05 1003 29.62 832 24.57 10.6 51.2 51 0.9 33.6
14:10 1003 29.62 832 24.57 10 50 51 0.5 32.9
14:15 1003 29.62 832 24.57 10.1 50.2 55 1.4 34.6
14:20 1003 29.62 832 24.57 9.8 49.6 54 1 33.9
14:25 1003 29.62 832 24.57 9.9 49.9 56 1.7 35.1
14:30 1003 29.62 832 24.57 9.4 49 59 2 35.5
14:35 1003 29.62 832 24.57 9.1 48.3 61 2.1 35.7
14:40 1003 29.62 832 24.57 8.9 48.1 61 1.8 35.2
14:45 1003 29.62 832 24.57 9 48.2 61 1.8 35.3
14:50 1003 29.62 832 24.57 9.3 48.8 61 2.1 35.8
14:55 1003 29.62 832 24.57 9.4 48.9 61 2.2 36
15:00 1003 29.62 832 24.57 9.4 49 61 2.2 36
15:05 1003 29.62 832 24.57 9.6 49.3 59 2.1 35.8
15:10 1003 29.62 832 24.57 9.8 49.7 58 2.1 35.8
15:15 1003 29.62 833 24.6 10 49.9 57 1.9 35.4
15:20 1003 29.62 833 24.6 9.9 49.9 55 1.4 34.6
15:25 1004 29.65 833 24.6 10.1 50.1 52 0.8 33.5
15:30 1004 29.65 833 24.6 10.1 50.1 49 -0.2 31.7
15:35 1004 29.65 833 24.6 9.9 49.8 50 0.1 32.2
15:40 1004 29.65 833 24.6 9.6 49.2 49 -0.5 31.1
15:45 1004 29.65 833 24.6 9.3 48.7 50 -0.6 31
15:50 1004 29.65 833 24.6 9.1 48.4 52 -0.3 31.4
15:55 1004 29.65 833 24.6 8.9 48.1 53 -0 31.9
16:00 1004 29.65 834 24.63 8.9 47.9 54 0 32.1
16:05 1004 29.65 834 24.63 8.8 47.8 55 0.4 32.7
16:10 1004 29.65 834 24.63 8.5 47.3 57 0.5 32.9
16:15 1004 29.65 833 24.6 8.4 47.1 56 0.1 32.1
16:20 1004 29.65 833 24.6 8.2 46.8 59 0.6 33.1
16:25 1004 29.65 833 24.6 7.5 45.4 61 0.5 32.9
16:30 1004 29.65 833 24.6 7.5 45.5 61 0.4 32.7
16:35 1004 29.65 833 24.6 7.4 45.3 58 -0.2 31.7
16:40 1004 29.65 833 24.6 7.3 45.1 61 0.3 32.6
16:45 1004 29.65 833 24.6 7.1 44.9 58 -0.6 30.9
16:50 1004 29.65 834 24.63 7.3 45.2 56 -0.9 30.4
16:55 1005 29.68 834 24.63 7.4 45.3 55 -1.1 29.9
17:00 1005 29.68 834 24.63 7.7 45.9 55 -0.7 30.7
17:05 1005 29.68 834 24.63 7.5 45.5 56 -0.6 30.8
17:10 1005 29.68 834 24.63 7.6 45.7 55 -0.9 30.4
17:15 1005 29.68 834 24.63 7.6 45.6 54 -1.2 29.8
17:20 1005 29.68 834 24.63 7.4 45.3 55 -0.9 30.3
17:25 1005 29.68 834 24.63 7 44.7 56 -1.1 30.1
17:30 1005 29.68 834 24.63 7.3 45.1 55 -1.1 30
17:35 1005 29.68 834 24.63 7 44.6 58 -0.7 30.7
17:40 1005 29.68 834 24.63 6.8 44.3 57 -1.2 29.9
17:45 1005 29.68 834 24.63 7.1 44.9 55 -1.2 29.8
17:50 1005 29.68 834 24.63 7.1 44.7 57 -0.8 30.6
17:55 1005 29.68 835 24.66 6.9 44.4 57 -1.1 29.9
18:00 1006 29.71 835 24.66 6.6 43.9 59 -0.8 30.5
18:05 1006 29.71 835 24.66 6.6 43.8 57 -1.3 29.6
18:10 1006 29.71 835 24.66 6.9 44.3 57 -1 30.2
18:15 1006 29.71 835 24.66 6.8 44.2 58 -0.9 30.4
18:20 1006 29.71 835 24.66 6.7 44.1 59 -0.7 30.8
18:25 1006 29.71 835 24.66 6.8 44.2 59 -0.6 30.9
18:30 1006 29.71 835 24.66 6.8 44.2 60 -0.4 31.3
18:35 1006 29.71 835 24.66 6.6 43.9 61 -0.3 31.5
18:40 1006 29.71 835 24.66 6.4 43.5 62 -0.4 31.3
18:45 1006 29.71 835 24.66 6.3 43.3 63 -0.2 31.7
18:50 1006 29.71 835 24.66 6 42.8 65 0 32
18:55 1006 29.71 835 24.66 6 42.8 66 0.1 32.1
19:00 1006 29.71 835 24.66 5.8 42.5 67 0.1 32.2
19:05 1006 29.71 835 24.66 5.7 42.2 66 -0.3 31.5
19:10 1006 29.71 835 24.66 5.8 42.5 65 -0.2 31.7
19:15 1006 29.71 835 24.66 5.7 42.3 66 -0.1 31.8
19:20 1006 29.71 836 24.69 5.3 41.5 64 -1 30.2
19:25 1007 29.74 836 24.69 5.6 42 57 -2.2 28
19:30 1007 29.74 836 24.69 5.8 42.4 54 -2.8 27
19:35 1007 29.74 836 24.69 5.8 42.4 58 -1.9 28.6
19:40 1007 29.74 836 24.69 5.5 41.9 59 -1.9 28.7
19:45 1007 29.74 836 24.69 5.5 41.9 60 -1.6 29.1
19:50 1007 29.74 836 24.69 5.5 41.9 54 -3.1 26.4
19:55 1007 29.74 836 24.69 6.1 42.9 54 -2.4 27.6
20:00 1007 29.74 837 24.72 5.8 42.5 58 -1.8 28.8
20:05 1007 29.74 837 24.72 5.5 42 61 -1.4 29.5
20:10 1007 29.74 837 24.72 5.4 41.7 60 -1.8 28.8
20:15 1007 29.74 837 24.72 5.4 41.8 59 -1.9 28.6
20:20 1007 29.74 837 24.72 5.5 41.9 59 -1.8 28.7
20:25 1008 29.77 837 24.72 5.3 41.6 63 -1.1 30
20:30 1008 29.77 837 24.72 3.9 39 65 -2 28.4
20:35 1008 29.77 837 24.72 3.6 38.4 59 -3.6 25.6
20:40 1008 29.77 837 24.72 3.8 38.8 63 -2.7 27.1
20:45 1008 29.77 837 24.72 3.7 38.6 63 -2.7 27.1
20:50 1008 29.77 837 24.72 3.8 38.8 59 -3.4 25.8
20:55 1008 29.77 837 24.72 4.2 39.6 54 -4.3 24.2
21:00 1008 29.77 837 24.72 4.7 40.4 53 -4 24.8
21:05 1008 29.77 837 24.72 4.6 40.3 56 -3.3 26
21:10 1008 29.77 837 24.72 4.2 39.6 61 -2.7 27.1
21:15 1008 29.77 837 24.72 3.4 38 67 -2.2 28
21:20 1008 29.77 837 24.72 3.2 37.7 69 -1.9 28.6
21:25 1008 29.77 837 24.72 2.8 37.1 71 -2 28.5
21:30 1008 29.77 837 24.72 3.1 37.6 64 -3 26.6
21:35 1008 29.77 837 24.72 3.6 38.5 59 -3.5 25.6
21:40 1008 29.77 838 24.75 3.9 39 56 -4 24.8
21:45 1009 29.8 838 24.75 4 39.2 57 -3.9 25
21:50 1009 29.8 838 24.75 4 39.3 57 -3.8 25.2
21:55 1009 29.8 838 24.75 4.2 39.6 54 -4.2 24.5
22:00 1009 29.8 838 24.75 4.4 39.8 53 -4.3 24.3
22:05 1009 29.8 838 24.75 4.3 39.8 54 -4.2 24.4
22:10 1009 29.8 838 24.75 4.3 39.8 52 -4.5 23.8
22:15 1009 29.8 838 24.75 4.5 40.1 50 -5 22.9
22:20 1009 29.8 838 24.75 4.5 40.1 50 -5 22.9
22:25 1009 29.8 838 24.75 4.7 40.4 49 -5.1 22.8
22:30 1009 29.8 839 24.78 4.6 40.3 50 -4.8 23.4
22:35 1009 29.8 839 24.78 4.6 40.2 50 -5 23.1
22:40 1010 29.83 839 24.78 4.6 40.2 48 -5.6 21.9
22:45 1010 29.83 839 24.78 4.8 40.6 48 -5.4 22.3
22:50 1010 29.83 839 24.78 4.7 40.4 49 -5.1 22.9
22:55 1010 29.83 839 24.78 4.5 40.2 46 -6 21.2
23:00 1010 29.83 839 24.78 4.6 40.3 47 -5.8 21.5
23:05 1010 29.83 839 24.78 4.6 40.2 47 -5.8 21.5
23:10 1010 29.83 839 24.78 4.6 40.2 47 -5.7 21.8
23:15 1010 29.83 839 24.78 4.4 39.9 48 -5.8 21.6
23:20 1010 29.83 839 24.78 4.3 39.7 49 -5.5 22.1
23:25 1010 29.83 840 24.81 4.1 39.4 51 -5.2 22.6
23:30 1010 29.83 840 24.81 4 39.2 53 -4.8 23.3
23:35 1010 29.83 840 24.81 3.8 38.8 53 -4.8 23.3
23:40 1010 29.83 840 24.81 3.6 38.5 55 -4.6 23.8
23:45 1010 29.83 840 24.81 3.5 38.4 50 -6 21.1
23:50 1010 29.83 840 24.81 3.8 38.9 48 -6.3 20.6
23:55 1010 29.83 840 24.81 3.9 39.1 47 -6.2 20.8
24:00 1010 29.83 840 24.81 3.9 38.9 47 -6.3 20.6